sensor_id;sensor_type;location;lat;lon;timestamp;temperature;humidity
59977;DHT22;45837;51.076;3.578;2023-05-07T00:00:16;22.20;56.30
59977;DHT22;45837;51.076;3.578;2023-05-07T00:02:44;22.20;56.00
59977;DHT22;45837;51.076;3.578;2023-05-07T00:05:10;22.20;55.70
59977;DHT22;45837;51.076;3.578;2023-05-07T00:07:36;22.20;55.70
59977;DHT22;45837;51.076;3.578;2023-05-07T00:10:03;22.20;56.20
59977;DHT22;45837;51.076;3.578;2023-05-07T00:12:29;22.20;55.80
59977;DHT22;45837;51.076;3.578;2023-05-07T00:14:57;22.20;56.00
59977;DHT22;45837;51.076;3.578;2023-05-07T00:17:22;22.20;55.90
59977;DHT22;45837;51.076;3.578;2023-05-07T00:19:48;22.20;56.40
59977;DHT22;45837;51.076;3.578;2023-05-07T00:22:14;22.20;56.40
59977;DHT22;45837;51.076;3.578;2023-05-07T00:24:39;22.20;56.00
59977;DHT22;45837;51.076;3.578;2023-05-07T00:27:05;22.20;56.50
59977;DHT22;45837;51.076;3.578;2023-05-07T00:29:31;22.20;56.00
59977;DHT22;45837;51.076;3.578;2023-05-07T00:31:56;22.20;56.40
59977;DHT22;45837;51.076;3.578;2023-05-07T00:34:22;22.20;56.50
59977;DHT22;45837;51.076;3.578;2023-05-07T00:36:48;22.20;56.10
59977;DHT22;45837;51.076;3.578;2023-05-07T00:39:14;22.20;56.50
59977;DHT22;45837;51.076;3.578;2023-05-07T00:41:39;22.20;56.00
59977;DHT22;45837;51.076;3.578;2023-05-07T00:44:05;22.20;56.10
59977;DHT22;45837;51.076;3.578;2023-05-07T00:46:32;22.20;56.10
59977;DHT22;45837;51.076;3.578;2023-05-07T00:48:58;22.10;56.30
59977;DHT22;45837;51.076;3.578;2023-05-07T00:51:25;22.10;55.60
59977;DHT22;45837;51.076;3.578;2023-05-07T00:53:52;22.20;55.60
59977;DHT22;45837;51.076;3.578;2023-05-07T00:56:17;22.10;56.40
59977;DHT22;45837;51.076;3.578;2023-05-07T00:58:43;22.20;55.80
59977;DHT22;45837;51.076;3.578;2023-05-07T01:01:09;22.10;56.20
59977;DHT22;45837;51.076;3.578;2023-05-07T01:03:35;22.10;56.50
59977;DHT22;45837;51.076;3.578;2023-05-07T01:06:00;22.10;56.30
59977;DHT22;45837;51.076;3.578;2023-05-07T01:08:26;22.10;55.80
59977;DHT22;45837;51.076;3.578;2023-05-07T01:10:55;22.10;55.50
59977;DHT22;45837;51.076;3.578;2023-05-07T01:13:21;22.20;55.50
59977;DHT22;45837;51.076;3.578;2023-05-07T01:15:48;22.10;55.50
59977;DHT22;45837;51.076;3.578;2023-05-07T01:18:14;22.10;56.00
59977;DHT22;45837;51.076;3.578;2023-05-07T01:20:40;22.10;55.80
59977;DHT22;45837;51.076;3.578;2023-05-07T01:23:06;22.10;55.80
59977;DHT22;45837;51.076;3.578;2023-05-07T01:25:32;22.10;56.00
59977;DHT22;45837;51.076;3.578;2023-05-07T01:28:00;20.50;54.90
59977;DHT22;45837;51.076;3.578;2023-05-07T01:30:29;22.10;55.60
59977;DHT22;45837;51.076;3.578;2023-05-07T01:33:06;22.10;56.40
59977;DHT22;45837;51.076;3.578;2023-05-07T01:35:40;22.10;55.30
59977;DHT22;45837;51.076;3.578;2023-05-07T01:38:07;22.10;55.30
59977;DHT22;45837;51.076;3.578;2023-05-07T01:40:33;22.10;55.60
59977;DHT22;45837;51.076;3.578;2023-05-07T01:43:03;22.10;55.50
59977;DHT22;45837;51.076;3.578;2023-05-07T01:45:30;22.10;55.60
59977;DHT22;45837;51.076;3.578;2023-05-07T01:47:57;22.10;55.60
59977;DHT22;45837;51.076;3.578;2023-05-07T01:50:23;22.10;55.50
59977;DHT22;45837;51.076;3.578;2023-05-07T01:52:50;22.10;55.50
59977;DHT22;45837;51.076;3.578;2023-05-07T01:55:16;22.00;55.50
59977;DHT22;45837;51.076;3.578;2023-05-07T01:57:42;22.10;56.00
59977;DHT22;45837;51.076;3.578;2023-05-07T02:00:09;22.10;55.60
59977;DHT22;45837;51.076;3.578;2023-05-07T02:02:44;22.10;55.60
59977;DHT22;45837;51.076;3.578;2023-05-07T02:05:20;22.10;56.30
59977;DHT22;45837;51.076;3.578;2023-05-07T02:07:53;22.00;55.90
59977;DHT22;45837;51.076;3.578;2023-05-07T02:10:18;22.10;55.80
59977;DHT22;45837;51.076;3.578;2023-05-07T02:12:44;22.10;56.00
59977;DHT22;45837;51.076;3.578;2023-05-07T02:15:10;22.10;55.50
59977;DHT22;45837;51.076;3.578;2023-05-07T02:17:39;22.10;55.40
59977;DHT22;45837;51.076;3.578;2023-05-07T02:20:05;22.10;55.50
59977;DHT22;45837;51.076;3.578;2023-05-07T02:22:30;22.10;55.40
59977;DHT22;45837;51.076;3.578;2023-05-07T02:24:56;22.00;55.90
59977;DHT22;45837;51.076;3.578;2023-05-07T02:27:22;22.00;55.90
59977;DHT22;45837;51.076;3.578;2023-05-07T02:29:47;22.10;55.90
59977;DHT22;45837;51.076;3.578;2023-05-07T02:32:13;22.00;55.90
59977;DHT22;45837;51.076;3.578;2023-05-07T02:34:39;22.00;56.20
59977;DHT22;45837;51.076;3.578;2023-05-07T02:37:05;22.00;55.80
59977;DHT22;45837;51.076;3.578;2023-05-07T02:39:30;22.10;56.20
59977;DHT22;45837;51.076;3.578;2023-05-07T02:41:56;22.00;55.60
59977;DHT22;45837;51.076;3.578;2023-05-07T02:44:22;22.00;56.00
59977;DHT22;45837;51.076;3.578;2023-05-07T02:46:50;22.00;56.00
59977;DHT22;45837;51.076;3.578;2023-05-07T02:49:16;22.00;56.30
59977;DHT22;45837;51.076;3.578;2023-05-07T02:51:42;22.10;56.00
59977;DHT22;45837;51.076;3.578;2023-05-07T02:54:13;22.00;55.80
59977;DHT22;45837;51.076;3.578;2023-05-07T02:56:39;22.00;55.70
59977;DHT22;45837;51.076;3.578;2023-05-07T02:59:04;22.00;56.20
59977;DHT22;45837;51.076;3.578;2023-05-07T03:01:35;22.00;55.80
59977;DHT22;45837;51.076;3.578;2023-05-07T03:04:03;22.00;55.80
59977;DHT22;45837;51.076;3.578;2023-05-07T03:06:29;22.00;56.30
59977;DHT22;45837;51.076;3.578;2023-05-07T03:08:55;22.00;55.60
59977;DHT22;45837;51.076;3.578;2023-05-07T03:11:21;22.00;55.50
59977;DHT22;45837;51.076;3.578;2023-05-07T03:13:47;22.00;56.10
59977;DHT22;45837;51.076;3.578;2023-05-07T03:16:15;22.00;55.40
59977;DHT22;45837;51.076;3.578;2023-05-07T03:18:41;22.00;55.40
59977;DHT22;45837;51.076;3.578;2023-05-07T03:21:07;22.00;55.90
59977;DHT22;45837;51.076;3.578;2023-05-07T03:23:32;22.00;55.70
59977;DHT22;45837;51.076;3.578;2023-05-07T03:25:58;22.00;55.90
59977;DHT22;45837;51.076;3.578;2023-05-07T03:28:24;22.00;56.10
59977;DHT22;45837;51.076;3.578;2023-05-07T03:30:55;22.00;55.40
59977;DHT22;45837;51.076;3.578;2023-05-07T03:33:21;22.00;56.30
59977;DHT22;45837;51.076;3.578;2023-05-07T03:35:47;22.00;56.60
59977;DHT22;45837;51.076;3.578;2023-05-07T03:38:18;22.00;55.70
59977;DHT22;45837;51.076;3.578;2023-05-07T03:40:44;22.00;56.20
59977;DHT22;45837;51.076;3.578;2023-05-07T03:43:10;22.00;55.90
59977;DHT22;45837;51.076;3.578;2023-05-07T03:45:38;22.00;56.00
59977;DHT22;45837;51.076;3.578;2023-05-07T03:48:10;22.00;55.70
59977;DHT22;45837;51.076;3.578;2023-05-07T03:50:35;22.00;55.90
59977;DHT22;45837;51.076;3.578;2023-05-07T03:53:01;22.00;56.00
59977;DHT22;45837;51.076;3.578;2023-05-07T03:55:29;22.00;55.90
59977;DHT22;45837;51.076;3.578;2023-05-07T03:57:58;22.00;55.80
59977;DHT22;45837;51.076;3.578;2023-05-07T04:00:26;22.00;55.70
59977;DHT22;45837;51.076;3.578;2023-05-07T04:02:52;22.00;55.70
59977;DHT22;45837;51.076;3.578;2023-05-07T04:05:30;22.00;55.90
59977;DHT22;45837;51.076;3.578;2023-05-07T04:08:00;22.00;55.50
59977;DHT22;45837;51.076;3.578;2023-05-07T04:10:33;22.00;55.90
59977;DHT22;45837;51.076;3.578;2023-05-07T04:13:03;22.00;56.10
59977;DHT22;45837;51.076;3.578;2023-05-07T04:15:28;22.00;55.90
59977;DHT22;45837;51.076;3.578;2023-05-07T04:17:55;22.00;55.60
59977;DHT22;45837;51.076;3.578;2023-05-07T04:20:23;22.00;56.10
59977;DHT22;45837;51.076;3.578;2023-05-07T04:22:55;22.00;56.20
59977;DHT22;45837;51.076;3.578;2023-05-07T04:25:21;22.00;55.70
59977;DHT22;45837;51.076;3.578;2023-05-07T04:27:48;22.00;55.80
59977;DHT22;45837;51.076;3.578;2023-05-07T04:30:15;22.00;55.50
59977;DHT22;45837;51.076;3.578;2023-05-07T04:32:41;22.00;55.90
59977;DHT22;45837;51.076;3.578;2023-05-07T04:35:07;21.90;56.10
59977;DHT22;45837;51.076;3.578;2023-05-07T04:37:34;22.00;56.10
59977;DHT22;45837;51.076;3.578;2023-05-07T04:40:00;21.90;56.10
59977;DHT22;45837;51.076;3.578;2023-05-07T04:42:26;22.00;55.90
59977;DHT22;45837;51.076;3.578;2023-05-07T04:44:53;22.00;55.50
59977;DHT22;45837;51.076;3.578;2023-05-07T04:47:20;21.90;55.40
59977;DHT22;45837;51.076;3.578;2023-05-07T04:49:46;22.00;56.40
59977;DHT22;45837;51.076;3.578;2023-05-07T04:52:12;22.00;55.70
59977;DHT22;45837;51.076;3.578;2023-05-07T04:54:38;22.00;55.90
59977;DHT22;45837;51.076;3.578;2023-05-07T04:57:04;21.90;56.20
59977;DHT22;45837;51.076;3.578;2023-05-07T04:59:30;21.90;56.00
59977;DHT22;45837;51.076;3.578;2023-05-07T05:01:57;21.90;55.40
59977;DHT22;45837;51.076;3.578;2023-05-07T05:04:23;21.90;55.80
59977;DHT22;45837;51.076;3.578;2023-05-07T05:06:49;21.90;56.00
59977;DHT22;45837;51.076;3.578;2023-05-07T05:09:16;21.90;55.70
59977;DHT22;45837;51.076;3.578;2023-05-07T05:11:42;21.90;55.50
59977;DHT22;45837;51.076;3.578;2023-05-07T05:14:08;21.90;56.00
59977;DHT22;45837;51.076;3.578;2023-05-07T05:16:33;22.00;55.90
59977;DHT22;45837;51.076;3.578;2023-05-07T05:18:59;21.90;56.00
59977;DHT22;45837;51.076;3.578;2023-05-07T05:21:25;21.90;56.00
59977;DHT22;45837;51.076;3.578;2023-05-07T05:23:56;21.90;56.20
59977;DHT22;45837;51.076;3.578;2023-05-07T05:26:24;21.90;55.70
59977;DHT22;45837;51.076;3.578;2023-05-07T05:28:51;22.00;56.50
59977;DHT22;45837;51.076;3.578;2023-05-07T05:31:19;21.90;56.30
59977;DHT22;45837;51.076;3.578;2023-05-07T05:33:46;21.90;56.30
59977;DHT22;45837;51.076;3.578;2023-05-07T05:36:11;21.90;56.20
59977;DHT22;45837;51.076;3.578;2023-05-07T05:38:39;21.90;55.80
59977;DHT22;45837;51.076;3.578;2023-05-07T05:41:06;21.90;55.30
59977;DHT22;45837;51.076;3.578;2023-05-07T05:43:31;21.90;55.80
59977;DHT22;45837;51.076;3.578;2023-05-07T05:45:58;21.90;56.10
59977;DHT22;45837;51.076;3.578;2023-05-07T05:48:24;21.90;55.70
59977;DHT22;45837;51.076;3.578;2023-05-07T05:50:50;21.90;56.10
59977;DHT22;45837;51.076;3.578;2023-05-07T05:53:18;21.90;56.60
59977;DHT22;45837;51.076;3.578;2023-05-07T05:55:43;21.90;56.40
59977;DHT22;45837;51.076;3.578;2023-05-07T05:58:10;22.00;56.50
59977;DHT22;45837;51.076;3.578;2023-05-07T06:00:40;22.00;56.50
59977;DHT22;45837;51.076;3.578;2023-05-07T06:03:06;22.00;56.80
59977;DHT22;45837;51.076;3.578;2023-05-07T06:05:33;22.00;57.20
59977;DHT22;45837;51.076;3.578;2023-05-07T06:07:59;22.00;57.70
59977;DHT22;45837;51.076;3.578;2023-05-07T06:10:29;22.00;56.80
59977;DHT22;45837;51.076;3.578;2023-05-07T06:12:55;22.00;56.80
59977;DHT22;45837;51.076;3.578;2023-05-07T06:15:21;22.00;57.10
59977;DHT22;45837;51.076;3.578;2023-05-07T06:17:47;22.00;57.30
59977;DHT22;45837;51.076;3.578;2023-05-07T06:20:14;22.00;57.40
59977;DHT22;45837;51.076;3.578;2023-05-07T06:22:40;22.00;57.80
59977;DHT22;45837;51.076;3.578;2023-05-07T06:25:07;22.00;57.90
59977;DHT22;45837;51.076;3.578;2023-05-07T06:27:33;22.00;57.30
59977;DHT22;45837;51.076;3.578;2023-05-07T06:29:59;22.00;58.30
59977;DHT22;45837;51.076;3.578;2023-05-07T06:32:24;22.00;58.50
59977;DHT22;45837;51.076;3.578;2023-05-07T06:34:51;22.00;58.50
59977;DHT22;45837;51.076;3.578;2023-05-07T06:37:18;22.00;58.30
59977;DHT22;45837;51.076;3.578;2023-05-07T06:40:04;22.00;58.00
59977;DHT22;45837;51.076;3.578;2023-05-07T06:42:32;22.00;57.40
59977;DHT22;45837;51.076;3.578;2023-05-07T06:45:15;22.00;58.50
59977;DHT22;45837;51.076;3.578;2023-05-07T06:47:41;22.00;58.30
59977;DHT22;45837;51.076;3.578;2023-05-07T06:50:08;22.00;58.50
59977;DHT22;45837;51.076;3.578;2023-05-07T06:52:35;22.00;58.40
59977;DHT22;45837;51.076;3.578;2023-05-07T06:55:01;22.00;58.60
59977;DHT22;45837;51.076;3.578;2023-05-07T06:57:27;22.10;58.30
59977;DHT22;45837;51.076;3.578;2023-05-07T06:59:52;22.00;58.30
59977;DHT22;45837;51.076;3.578;2023-05-07T07:02:19;22.00;58.50
59977;DHT22;45837;51.076;3.578;2023-05-07T07:04:47;22.00;58.30
59977;DHT22;45837;51.076;3.578;2023-05-07T07:07:13;22.00;58.80
59977;DHT22;45837;51.076;3.578;2023-05-07T07:09:40;22.00;58.70
59977;DHT22;45837;51.076;3.578;2023-05-07T07:12:08;22.00;59.30
59977;DHT22;45837;51.076;3.578;2023-05-07T07:14:36;22.00;58.60
59977;DHT22;45837;51.076;3.578;2023-05-07T07:17:02;21.00;58.00
59977;DHT22;45837;51.076;3.578;2023-05-07T07:19:30;22.00;58.70
59977;DHT22;45837;51.076;3.578;2023-05-07T07:21:57;22.00;58.60
59977;DHT22;45837;51.076;3.578;2023-05-07T07:24:23;22.00;59.20
59977;DHT22;45837;51.076;3.578;2023-05-07T07:26:54;22.00;58.60
59977;DHT22;45837;51.076;3.578;2023-05-07T07:29:23;22.10;58.70
59977;DHT22;45837;51.076;3.578;2023-05-07T07:31:49;22.00;58.60
59977;DHT22;45837;51.076;3.578;2023-05-07T07:34:16;22.00;58.80
59977;DHT22;45837;51.076;3.578;2023-05-07T07:36:42;22.10;59.30
59977;DHT22;45837;51.076;3.578;2023-05-07T07:39:08;22.00;58.60
59977;DHT22;45837;51.076;3.578;2023-05-07T07:41:35;22.00;58.70
59977;DHT22;45837;51.076;3.578;2023-05-07T07:44:02;22.00;59.50
59977;DHT22;45837;51.076;3.578;2023-05-07T07:46:29;21.80;58.70
59977;DHT22;45837;51.076;3.578;2023-05-07T07:48:55;22.10;59.40
59977;DHT22;45837;51.076;3.578;2023-05-07T07:51:23;22.10;59.10
59977;DHT22;45837;51.076;3.578;2023-05-07T07:53:50;22.10;59.60
59977;DHT22;45837;51.076;3.578;2023-05-07T07:56:17;22.00;59.90
59977;DHT22;45837;51.076;3.578;2023-05-07T07:58:42;22.00;59.70
59977;DHT22;45837;51.076;3.578;2023-05-07T08:01:08;22.10;59.40
59977;DHT22;45837;51.076;3.578;2023-05-07T08:03:34;22.10;60.10
59977;DHT22;45837;51.076;3.578;2023-05-07T08:06:01;22.10;59.20
59977;DHT22;45837;51.076;3.578;2023-05-07T08:08:28;22.10;59.70
59977;DHT22;45837;51.076;3.578;2023-05-07T08:10:54;22.10;59.90
59977;DHT22;45837;51.076;3.578;2023-05-07T08:13:27;22.10;59.90
59977;DHT22;45837;51.076;3.578;2023-05-07T08:15:53;22.10;59.30
59977;DHT22;45837;51.076;3.578;2023-05-07T08:18:19;22.10;59.70
59977;DHT22;45837;51.076;3.578;2023-05-07T08:20:45;22.10;59.90
59977;DHT22;45837;51.076;3.578;2023-05-07T08:23:15;22.10;59.40
59977;DHT22;45837;51.076;3.578;2023-05-07T08:25:42;22.10;59.80
59977;DHT22;45837;51.076;3.578;2023-05-07T08:28:08;22.10;60.00
59977;DHT22;45837;51.076;3.578;2023-05-07T08:30:35;22.10;59.80
59977;DHT22;45837;51.076;3.578;2023-05-07T08:33:01;22.10;59.50
59977;DHT22;45837;51.076;3.578;2023-05-07T08:35:26;22.10;59.90
59977;DHT22;45837;51.076;3.578;2023-05-07T08:37:54;22.10;59.70
59977;DHT22;45837;51.076;3.578;2023-05-07T08:40:21;22.10;59.70
59977;DHT22;45837;51.076;3.578;2023-05-07T08:42:49;22.10;59.20
59977;DHT22;45837;51.076;3.578;2023-05-07T08:45:17;22.10;59.60
59977;DHT22;45837;51.076;3.578;2023-05-07T08:47:50;22.10;59.70
59977;DHT22;45837;51.076;3.578;2023-05-07T08:50:19;22.10;59.60
59977;DHT22;45837;51.076;3.578;2023-05-07T08:52:47;22.10;60.00
59977;DHT22;45837;51.076;3.578;2023-05-07T08:55:13;22.10;60.10
59977;DHT22;45837;51.076;3.578;2023-05-07T08:57:39;22.10;60.70
59977;DHT22;45837;51.076;3.578;2023-05-07T09:00:05;22.20;60.80
59977;DHT22;45837;51.076;3.578;2023-05-07T09:02:35;22.10;60.20
59977;DHT22;45837;51.076;3.578;2023-05-07T09:05:01;22.10;60.60
59977;DHT22;45837;51.076;3.578;2023-05-07T09:07:26;22.10;61.30
59977;DHT22;45837;51.076;3.578;2023-05-07T09:09:53;22.10;61.60
59977;DHT22;45837;51.076;3.578;2023-05-07T09:12:20;22.20;61.30
59977;DHT22;45837;51.076;3.578;2023-05-07T09:14:46;22.20;61.40
59977;DHT22;45837;51.076;3.578;2023-05-07T09:17:13;22.20;62.00
59977;DHT22;45837;51.076;3.578;2023-05-07T09:19:39;22.20;61.60
59977;DHT22;45837;51.076;3.578;2023-05-07T09:22:06;22.20;62.30
59977;DHT22;45837;51.076;3.578;2023-05-07T09:24:48;22.20;62.20
59977;DHT22;45837;51.076;3.578;2023-05-07T09:27:14;22.20;62.60
59977;DHT22;45837;51.076;3.578;2023-05-07T09:29:41;22.20;62.30
59977;DHT22;45837;51.076;3.578;2023-05-07T09:32:07;22.20;63.10
59977;DHT22;45837;51.076;3.578;2023-05-07T09:34:34;22.20;62.20
59977;DHT22;45837;51.076;3.578;2023-05-07T09:37:01;22.20;62.20
59977;DHT22;45837;51.076;3.578;2023-05-07T09:39:43;22.20;62.50
59977;DHT22;45837;51.076;3.578;2023-05-07T09:42:11;22.20;61.80
59977;DHT22;45837;51.076;3.578;2023-05-07T09:44:37;22.20;62.30
59977;DHT22;45837;51.076;3.578;2023-05-07T09:47:06;22.20;62.00
59977;DHT22;45837;51.076;3.578;2023-05-07T09:49:39;22.20;61.90
59977;DHT22;45837;51.076;3.578;2023-05-07T09:52:08;22.20;61.60
59977;DHT22;45837;51.076;3.578;2023-05-07T09:54:38;22.20;62.10
59977;DHT22;45837;51.076;3.578;2023-05-07T09:57:05;22.20;61.80
59977;DHT22;45837;51.076;3.578;2023-05-07T09:59:33;22.20;61.60
59977;DHT22;45837;51.076;3.578;2023-05-07T10:02:03;22.20;61.30
59977;DHT22;45837;51.076;3.578;2023-05-07T10:04:30;22.20;61.40
59977;DHT22;45837;51.076;3.578;2023-05-07T10:06:58;22.20;62.00
59977;DHT22;45837;51.076;3.578;2023-05-07T10:09:25;22.20;61.70
59977;DHT22;45837;51.076;3.578;2023-05-07T10:11:52;22.20;62.20
59977;DHT22;45837;51.076;3.578;2023-05-07T10:14:20;22.20;62.50
59977;DHT22;45837;51.076;3.578;2023-05-07T10:16:46;22.30;62.50
59977;DHT22;45837;51.076;3.578;2023-05-07T10:19:15;22.30;62.40
59977;DHT22;45837;51.076;3.578;2023-05-07T10:21:53;22.30;62.40
59977;DHT22;45837;51.076;3.578;2023-05-07T10:24:29;22.30;62.20
59977;DHT22;45837;51.076;3.578;2023-05-07T10:26:57;22.30;62.10
59977;DHT22;45837;51.076;3.578;2023-05-07T10:34:39;22.30;62.10
59977;DHT22;45837;51.076;3.578;2023-05-07T10:37:06;22.30;62.40
59977;DHT22;45837;51.076;3.578;2023-05-07T10:39:32;22.30;62.30
59977;DHT22;45837;51.076;3.578;2023-05-07T10:42:12;22.30;62.70
59977;DHT22;45837;51.076;3.578;2023-05-07T10:44:41;22.30;62.10
59977;DHT22;45837;51.076;3.578;2023-05-07T10:47:14;22.30;63.20
59977;DHT22;45837;51.076;3.578;2023-05-07T10:52:18;22.30;62.80
59977;DHT22;45837;51.076;3.578;2023-05-07T10:57:38;22.40;61.90
59977;DHT22;45837;51.076;3.578;2023-05-07T11:05:31;22.40;61.60
59977;DHT22;45837;51.076;3.578;2023-05-07T11:08:13;22.40;61.90
59977;DHT22;45837;51.076;3.578;2023-05-07T11:10:52;22.40;62.30
59977;DHT22;45837;51.076;3.578;2023-05-07T11:13:48;22.40;61.80
59977;DHT22;45837;51.076;3.578;2023-05-07T11:16:43;22.40;61.50
59977;DHT22;45837;51.076;3.578;2023-05-07T11:22:24;22.40;61.50
59977;DHT22;45837;51.076;3.578;2023-05-07T11:25:03;22.50;61.60
59977;DHT22;45837;51.076;3.578;2023-05-07T11:27:29;22.40;61.70
59977;DHT22;45837;51.076;3.578;2023-05-07T11:29:56;22.40;61.90
59977;DHT22;45837;51.076;3.578;2023-05-07T11:32:25;22.40;62.30
59977;DHT22;45837;51.076;3.578;2023-05-07T11:34:53;22.40;62.10
59977;DHT22;45837;51.076;3.578;2023-05-07T11:37:19;22.40;62.20
59977;DHT22;45837;51.076;3.578;2023-05-07T11:40:08;22.40;62.30
59977;DHT22;45837;51.076;3.578;2023-05-07T11:42:36;22.40;62.30
59977;DHT22;45837;51.076;3.578;2023-05-07T11:45:06;22.40;62.50
59977;DHT22;45837;51.076;3.578;2023-05-07T11:47:32;22.40;62.40
59977;DHT22;45837;51.076;3.578;2023-05-07T11:50:02;22.40;62.60
59977;DHT22;45837;51.076;3.578;2023-05-07T11:52:28;22.40;62.60
59977;DHT22;45837;51.076;3.578;2023-05-07T11:54:54;22.40;63.00
59977;DHT22;45837;51.076;3.578;2023-05-07T11:57:20;22.40;62.60
59977;DHT22;45837;51.076;3.578;2023-05-07T11:59:46;22.50;62.30
59977;DHT22;45837;51.076;3.578;2023-05-07T12:02:15;22.40;62.20
59977;DHT22;45837;51.076;3.578;2023-05-07T12:04:41;22.50;62.20
59977;DHT22;45837;51.076;3.578;2023-05-07T12:07:16;22.50;62.00
59977;DHT22;45837;51.076;3.578;2023-05-07T12:09:42;22.50;61.80
59977;DHT22;45837;51.076;3.578;2023-05-07T12:12:08;22.50;61.90
59977;DHT22;45837;51.076;3.578;2023-05-07T12:14:40;22.50;62.00
59977;DHT22;45837;51.076;3.578;2023-05-07T12:17:09;22.50;61.30
59977;DHT22;45837;51.076;3.578;2023-05-07T12:19:35;22.50;61.10
59977;DHT22;45837;51.076;3.578;2023-05-07T12:22:04;22.50;61.20
59977;DHT22;45837;51.076;3.578;2023-05-07T12:24:46;22.50;61.00
59977;DHT22;45837;51.076;3.578;2023-05-07T12:27:15;22.50;60.70
59977;DHT22;45837;51.076;3.578;2023-05-07T12:29:47;22.50;60.50
59977;DHT22;45837;51.076;3.578;2023-05-07T12:32:17;22.50;60.60
59977;DHT22;45837;51.076;3.578;2023-05-07T12:34:43;22.50;60.50
59977;DHT22;45837;51.076;3.578;2023-05-07T12:37:09;22.50;60.80
59977;DHT22;45837;51.076;3.578;2023-05-07T12:39:35;22.50;60.50
59977;DHT22;45837;51.076;3.578;2023-05-07T12:42:01;22.50;60.50
59977;DHT22;45837;51.076;3.578;2023-05-07T12:44:32;22.50;60.80
59977;DHT22;45837;51.076;3.578;2023-05-07T12:46:58;22.50;60.20
59977;DHT22;45837;51.076;3.578;2023-05-07T12:49:24;22.50;60.20
59977;DHT22;45837;51.076;3.578;2023-05-07T12:51:50;22.50;60.30
59977;DHT22;45837;51.076;3.578;2023-05-07T12:54:29;22.50;60.70
59977;DHT22;45837;51.076;3.578;2023-05-07T12:57:06;22.50;60.00
59977;DHT22;45837;51.076;3.578;2023-05-07T12:59:33;22.50;60.00
59977;DHT22;45837;51.076;3.578;2023-05-07T13:01:58;22.40;60.00
59977;DHT22;45837;51.076;3.578;2023-05-07T13:04:24;22.50;60.40
59977;DHT22;45837;51.076;3.578;2023-05-07T13:06:50;22.40;59.90
59977;DHT22;45837;51.076;3.578;2023-05-07T13:09:16;22.40;60.40
59977;DHT22;45837;51.076;3.578;2023-05-07T13:11:41;22.50;60.90
59977;DHT22;45837;51.076;3.578;2023-05-07T13:14:07;22.50;60.50
59977;DHT22;45837;51.076;3.578;2023-05-07T13:16:33;22.50;60.70
59977;DHT22;45837;51.076;3.578;2023-05-07T13:18:59;22.50;60.40
59977;DHT22;45837;51.076;3.578;2023-05-07T13:21:24;22.40;60.40
59977;DHT22;45837;51.076;3.578;2023-05-07T13:23:50;22.40;60.00
59977;DHT22;45837;51.076;3.578;2023-05-07T13:26:16;22.40;60.50
59977;DHT22;45837;51.076;3.578;2023-05-07T13:28:42;22.40;60.00
59977;DHT22;45837;51.076;3.578;2023-05-07T13:31:09;22.40;60.30
59977;DHT22;45837;51.076;3.578;2023-05-07T13:33:34;22.40;60.70
59977;DHT22;45837;51.076;3.578;2023-05-07T13:36:01;22.40;60.40
59977;DHT22;45837;51.076;3.578;2023-05-07T13:38:29;22.40;60.00
59977;DHT22;45837;51.076;3.578;2023-05-07T13:40:54;22.40;60.00
59977;DHT22;45837;51.076;3.578;2023-05-07T13:43:20;22.40;60.60
59977;DHT22;45837;51.076;3.578;2023-05-07T13:45:46;22.40;60.40
59977;DHT22;45837;51.076;3.578;2023-05-07T13:48:11;22.40;60.70
59977;DHT22;45837;51.076;3.578;2023-05-07T13:50:37;22.40;60.40
59977;DHT22;45837;51.076;3.578;2023-05-07T13:53:03;22.40;60.60
59977;DHT22;45837;51.076;3.578;2023-05-07T13:55:28;22.40;60.00
59977;DHT22;45837;51.076;3.578;2023-05-07T13:57:55;22.40;59.70
59977;DHT22;45837;51.076;3.578;2023-05-07T14:00:21;22.40;59.60
59977;DHT22;45837;51.076;3.578;2023-05-07T14:02:47;22.40;59.70
59977;DHT22;45837;51.076;3.578;2023-05-07T14:05:13;22.40;59.90
59977;DHT22;45837;51.076;3.578;2023-05-07T14:07:39;22.40;60.10
59977;DHT22;45837;51.076;3.578;2023-05-07T14:10:04;22.30;60.00
59977;DHT22;45837;51.076;3.578;2023-05-07T14:12:31;22.30;59.60
59977;DHT22;45837;51.076;3.578;2023-05-07T14:14:57;22.30;59.80
59977;DHT22;45837;51.076;3.578;2023-05-07T14:17:23;22.40;60.20
59977;DHT22;45837;51.076;3.578;2023-05-07T14:19:50;22.30;60.50
59977;DHT22;45837;51.076;3.578;2023-05-07T14:22:16;22.40;60.50
59977;DHT22;45837;51.076;3.578;2023-05-07T14:24:42;22.30;60.90
59977;DHT22;45837;51.076;3.578;2023-05-07T14:27:07;22.30;60.20
59977;DHT22;45837;51.076;3.578;2023-05-07T14:29:33;22.30;60.40
59977;DHT22;45837;51.076;3.578;2023-05-07T14:32:01;22.40;61.30
59977;DHT22;45837;51.076;3.578;2023-05-07T14:34:26;22.30;60.70
59977;DHT22;45837;51.076;3.578;2023-05-07T14:36:52;22.40;61.30
59977;DHT22;45837;51.076;3.578;2023-05-07T14:39:17;22.40;61.60
59977;DHT22;45837;51.076;3.578;2023-05-07T14:41:43;22.30;61.40
59977;DHT22;45837;51.076;3.578;2023-05-07T14:44:09;22.40;62.00
59977;DHT22;45837;51.076;3.578;2023-05-07T14:46:34;22.40;61.60
59977;DHT22;45837;51.076;3.578;2023-05-07T14:49:01;22.40;62.70
59977;DHT22;45837;51.076;3.578;2023-05-07T14:51:27;22.40;62.10
59977;DHT22;45837;51.076;3.578;2023-05-07T14:53:54;22.40;62.70
59977;DHT22;45837;51.076;3.578;2023-05-07T14:56:20;22.40;62.00
59977;DHT22;45837;51.076;3.578;2023-05-07T14:58:48;22.40;61.70
59977;DHT22;45837;51.076;3.578;2023-05-07T15:01:14;22.40;61.10
59977;DHT22;45837;51.076;3.578;2023-05-07T15:03:40;22.40;61.60
59977;DHT22;45837;51.076;3.578;2023-05-07T15:06:05;22.40;61.70
59977;DHT22;45837;51.076;3.578;2023-05-07T15:08:31;22.40;62.60
59977;DHT22;45837;51.076;3.578;2023-05-07T15:10:57;22.40;63.00
59977;DHT22;45837;51.076;3.578;2023-05-07T15:13:22;22.40;62.90
59977;DHT22;45837;51.076;3.578;2023-05-07T15:15:48;22.40;63.50
59977;DHT22;45837;51.076;3.578;2023-05-07T15:18:15;22.40;63.90
59977;DHT22;45837;51.076;3.578;2023-05-07T15:20:40;22.40;64.50
59977;DHT22;45837;51.076;3.578;2023-05-07T15:23:06;22.40;63.80
59977;DHT22;45837;51.076;3.578;2023-05-07T15:25:35;22.40;64.40
59977;DHT22;45837;51.076;3.578;2023-05-07T15:28:01;22.50;65.70
59977;DHT22;45837;51.076;3.578;2023-05-07T15:30:27;22.50;66.80
59977;DHT22;45837;51.076;3.578;2023-05-07T15:32:53;22.50;65.90
59977;DHT22;45837;51.076;3.578;2023-05-07T15:35:18;22.50;65.10
59977;DHT22;45837;51.076;3.578;2023-05-07T15:37:47;22.60;65.10
59977;DHT22;45837;51.076;3.578;2023-05-07T15:40:14;22.60;65.10
59977;DHT22;45837;51.076;3.578;2023-05-07T15:42:40;22.60;65.40
59977;DHT22;45837;51.076;3.578;2023-05-07T15:45:06;22.60;65.50
59977;DHT22;45837;51.076;3.578;2023-05-07T15:47:32;22.60;65.10
59977;DHT22;45837;51.076;3.578;2023-05-07T15:49:58;22.60;65.20